sensor_id;sensor_type;location;lat;lon;timestamp;P1;durP1;ratioP1;P2;durP2;ratioP2
43690;SDS011;29293;52.190;21.226;2022-11-23T00:01:26;93.50;;;33.30;;
43690;SDS011;29293;52.190;21.226;2022-11-23T00:16:41;100.40;;;35.20;;
43690;SDS011;29293;52.190;21.226;2022-11-23T00:31:49;95.50;;;34.50;;
43690;SDS011;29293;52.190;21.226;2022-11-23T00:46:57;79.10;;;30.10;;
43690;SDS011;29293;52.190;21.226;2022-11-23T01:02:05;82.20;;;30.60;;
43690;SDS011;29293;52.190;21.226;2022-11-23T01:17:13;86.60;;;29.20;;
43690;SDS011;29293;52.190;21.226;2022-11-23T01:32:20;95.20;;;33.00;;
43690;SDS011;29293;52.190;21.226;2022-11-23T02:03:00;91.70;;;34.40;;
43690;SDS011;29293;52.190;21.226;2022-11-23T02:18:14;92.50;;;33.40;;
43690;SDS011;29293;52.190;21.226;2022-11-23T02:33:25;83.30;;;30.40;;
43690;SDS011;29293;52.190;21.226;2022-11-23T02:48:33;79.00;;;29.30;;
43690;SDS011;29293;52.190;21.226;2022-11-23T03:03:41;80.40;;;28.50;;
43690;SDS011;29293;52.190;21.226;2022-11-23T03:18:48;67.10;;;25.40;;
43690;SDS011;29293;52.190;21.226;2022-11-23T03:33:56;63.50;;;22.80;;
43690;SDS011;29293;52.190;21.226;2022-11-23T03:49:04;58.30;;;22.50;;
43690;SDS011;29293;52.190;21.226;2022-11-23T04:04:11;58.80;;;22.80;;
43690;SDS011;29293;52.190;21.226;2022-11-23T04:19:19;67.20;;;23.50;;
43690;SDS011;29293;52.190;21.226;2022-11-23T04:34:26;48.10;;;20.10;;
43690;SDS011;29293;52.190;21.226;2022-11-23T05:04:39;39.90;;;16.40;;
43690;SDS011;29293;52.190;21.226;2022-11-23T05:19:47;37.30;;;15.90;;
43690;SDS011;29293;52.190;21.226;2022-11-23T05:34:55;42.50;;;16.90;;
43690;SDS011;29293;52.190;21.226;2022-11-23T05:50:04;47.10;;;18.50;;
43690;SDS011;29293;52.190;21.226;2022-11-23T06:05:13;40.90;;;18.10;;
43690;SDS011;29293;52.190;21.226;2022-11-23T06:20:20;36.90;;;16.20;;
43690;SDS011;29293;52.190;21.226;2022-11-23T06:35:28;32.30;;;15.10;;
43690;SDS011;29293;52.190;21.226;2022-11-23T06:51:13;39.00;;;15.00;;
43690;SDS011;29293;52.190;21.226;2022-11-23T07:06:24;37.00;;;15.50;;
43690;SDS011;29293;52.190;21.226;2022-11-23T07:21:32;39.40;;;17.40;;
43690;SDS011;29293;52.190;21.226;2022-11-23T07:51:45;39.30;;;18.30;;
43690;SDS011;29293;52.190;21.226;2022-11-23T08:06:53;33.70;;;15.80;;
43690;SDS011;29293;52.190;21.226;2022-11-23T08:22:01;34.70;;;16.00;;
43690;SDS011;29293;52.190;21.226;2022-11-23T08:37:08;29.90;;;14.70;;
43690;SDS011;29293;52.190;21.226;2022-11-23T09:07:21;27.90;;;14.10;;
43690;SDS011;29293;52.190;21.226;2022-11-23T09:22:29;30.80;;;14.50;;
43690;SDS011;29293;52.190;21.226;2022-11-23T09:37:37;33.00;;;16.50;;
43690;SDS011;29293;52.190;21.226;2022-11-23T09:52:45;31.80;;;15.60;;
43690;SDS011;29293;52.190;21.226;2022-11-23T10:08:01;38.20;;;18.50;;
43690;SDS011;29293;52.190;21.226;2022-11-23T10:23:16;35.20;;;17.40;;
43690;SDS011;29293;52.190;21.226;2022-11-23T10:38:33;35.30;;;19.50;;
43690;SDS011;29293;52.190;21.226;2022-11-23T10:53:40;44.70;;;20.00;;
43690;SDS011;29293;52.190;21.226;2022-11-23T11:08:49;42.30;;;20.70;;
43690;SDS011;29293;52.190;21.226;2022-11-23T11:24:00;40.20;;;20.60;;
43690;SDS011;29293;52.190;21.226;2022-11-23T11:39:11;42.40;;;20.20;;
43690;SDS011;29293;52.190;21.226;2022-11-23T11:54:24;44.60;;;22.70;;
43690;SDS011;29293;52.190;21.226;2022-11-23T12:09:37;52.00;;;25.60;;
43690;SDS011;29293;52.190;21.226;2022-11-23T12:24:53;55.00;;;24.20;;
43690;SDS011;29293;52.190;21.226;2022-11-23T12:55:43;55.90;;;28.30;;
43690;SDS011;29293;52.190;21.226;2022-11-23T13:11:03;53.30;;;25.30;;
43690;SDS011;29293;52.190;21.226;2022-11-23T13:26:26;58.80;;;25.80;;
43690;SDS011;29293;52.190;21.226;2022-11-23T13:57:10;77.70;;;31.30;;
43690;SDS011;29293;52.190;21.226;2022-11-23T14:12:31;73.30;;;29.10;;
43690;SDS011;29293;52.190;21.226;2022-11-23T14:27:43;89.50;;;34.40;;
43690;SDS011;29293;52.190;21.226;2022-11-23T14:43:00;88.00;;;34.50;;
43690;SDS011;29293;52.190;21.226;2022-11-23T14:58:10;92.60;;;36.40;;
43690;SDS011;29293;52.190;21.226;2022-11-23T15:13:22;101.70;;;40.50;;
43690;SDS011;29293;52.190;21.226;2022-11-23T15:28:32;83.40;;;33.40;;
43690;SDS011;29293;52.190;21.226;2022-11-23T15:43:51;88.70;;;36.80;;
43690;SDS011;29293;52.190;21.226;2022-11-23T15:59:00;94.70;;;35.20;;
43690;SDS011;29293;52.190;21.226;2022-11-23T16:14:26;93.60;;;38.20;;
43690;SDS011;29293;52.190;21.226;2022-11-23T16:29:36;79.60;;;33.40;;
43690;SDS011;29293;52.190;21.226;2022-11-23T16:44:44;97.20;;;36.70;;
43690;SDS011;29293;52.190;21.226;2022-11-23T16:59:52;86.80;;;35.70;;
43690;SDS011;29293;52.190;21.226;2022-11-23T17:30:10;68.00;;;28.60;;
43690;SDS011;29293;52.190;21.226;2022-11-23T17:45:20;66.50;;;29.00;;
43690;SDS011;29293;52.190;21.226;2022-11-23T18:00:28;74.40;;;33.20;;
43690;SDS011;29293;52.190;21.226;2022-11-23T18:15:36;86.00;;;36.00;;
43690;SDS011;29293;52.190;21.226;2022-11-23T18:30:43;73.80;;;30.80;;
43690;SDS011;29293;52.190;21.226;2022-11-23T18:45:51;85.10;;;32.00;;
43690;SDS011;29293;52.190;21.226;2022-11-23T19:01:03;74.40;;;30.50;;
43690;SDS011;29293;52.190;21.226;2022-11-23T19:16:14;86.90;;;33.50;;
43690;SDS011;29293;52.190;21.226;2022-11-23T19:31:26;79.10;;;32.20;;
43690;SDS011;29293;52.190;21.226;2022-11-23T19:46:35;85.50;;;33.90;;
43690;SDS011;29293;52.190;21.226;2022-11-23T20:01:42;72.10;;;30.20;;
43690;SDS011;29293;52.190;21.226;2022-11-23T20:16:50;79.90;;;33.80;;
43690;SDS011;29293;52.190;21.226;2022-11-23T20:31:59;75.00;;;32.80;;
43690;SDS011;29293;52.190;21.226;2022-11-23T21:02:14;61.60;;;26.20;;
43690;SDS011;29293;52.190;21.226;2022-11-23T21:17:22;61.90;;;25.80;;
43690;SDS011;29293;52.190;21.226;2022-11-23T21:32:29;75.50;;;29.80;;
43690;SDS011;29293;52.190;21.226;2022-11-23T21:47:37;83.50;;;32.80;;
43690;SDS011;29293;52.190;21.226;2022-11-23T22:02:44;73.00;;;26.90;;
43690;SDS011;29293;52.190;21.226;2022-11-23T22:18:27;67.50;;;27.30;;
43690;SDS011;29293;52.190;21.226;2022-11-23T22:33:35;65.50;;;26.80;;
43690;SDS011;29293;52.190;21.226;2022-11-23T22:48:44;62.00;;;27.10;;
43690;SDS011;29293;52.190;21.226;2022-11-23T23:03:52;50.40;;;22.00;;
43690;SDS011;29293;52.190;21.226;2022-11-23T23:19:01;59.10;;;23.20;;
43690;SDS011;29293;52.190;21.226;2022-11-23T23:34:09;57.50;;;23.10;;
43690;SDS011;29293;52.190;21.226;2022-11-23T23:49:16;57.10;;;22.30;;
